sensor_id;sensor_type;location;lat;lon;timestamp;pressure;altitude;pressure_sealevel;temperature;humidity
12785;BME280;6456;42.680;23.260;2023-05-20T00:00:30;94909.03;;;13.36;100.00
12785;BME280;6456;42.680;23.260;2023-05-20T00:02:57;94929.38;;;13.35;100.00
12785;BME280;6456;42.680;23.260;2023-05-20T00:05:25;94941.03;;;13.46;100.00
12785;BME280;6456;42.680;23.260;2023-05-20T00:07:51;94968.28;;;13.65;100.00
12785;BME280;6456;42.680;23.260;2023-05-20T00:10:18;94972.47;;;13.54;100.00
12785;BME280;6456;42.680;23.260;2023-05-20T00:12:45;94985.25;;;13.57;100.00
12785;BME280;6456;42.680;23.260;2023-05-20T00:15:13;94968.56;;;13.57;100.00
12785;BME280;6456;42.680;23.260;2023-05-20T00:17:40;94949.06;;;13.39;100.00
12785;BME280;6456;42.680;23.260;2023-05-20T00:20:08;94902.38;;;13.15;100.00
12785;BME280;6456;42.680;23.260;2023-05-20T00:22:35;94925.19;;;13.28;100.00
12785;BME280;6456;42.680;23.260;2023-05-20T00:25:02;94948.25;;;13.39;100.00
12785;BME280;6456;42.680;23.260;2023-05-20T00:27:29;94958.28;;;13.48;100.00
12785;BME280;6456;42.680;23.260;2023-05-20T00:29:56;94959.94;;;13.49;100.00
12785;BME280;6456;42.680;23.260;2023-05-20T00:32:25;94972.56;;;13.47;100.00
12785;BME280;6456;42.680;23.260;2023-05-20T00:34:55;94958.97;;;13.44;100.00
12785;BME280;6456;42.680;23.260;2023-05-20T00:37:22;94954.69;;;13.43;100.00
12785;BME280;6456;42.680;23.260;2023-05-20T00:39:49;94903.91;;;13.05;100.00
12785;BME280;6456;42.680;23.260;2023-05-20T00:42:19;94929.41;;;13.17;100.00
12785;BME280;6456;42.680;23.260;2023-05-20T00:44:46;94885.25;;;12.81;100.00
12785;BME280;6456;42.680;23.260;2023-05-20T00:47:14;94955.31;;;13.27;100.00
12785;BME280;6456;42.680;23.260;2023-05-20T00:49:42;94954.50;;;13.26;100.00
12785;BME280;6456;42.680;23.260;2023-05-20T00:52:10;94948.63;;;13.24;100.00
12785;BME280;6456;42.680;23.260;2023-05-20T00:54:37;94952.13;;;13.18;100.00
12785;BME280;6456;42.680;23.260;2023-05-20T00:57:06;94928.66;;;13.10;100.00
12785;BME280;6456;42.680;23.260;2023-05-20T00:59:33;94903.31;;;12.84;100.00
12785;BME280;6456;42.680;23.260;2023-05-20T01:02:01;94950.31;;;13.19;100.00
12785;BME280;6456;42.680;23.260;2023-05-20T01:04:28;94893.91;;;12.88;100.00
12785;BME280;6456;42.680;23.260;2023-05-20T01:06:58;94943.19;;;13.19;100.00
12785;BME280;6456;42.680;23.260;2023-05-20T01:09:26;94932.78;;;13.24;100.00
12785;BME280;6456;42.680;23.260;2023-05-20T01:12:09;94934.59;;;13.24;100.00
12785;BME280;6456;42.680;23.260;2023-05-20T01:14:42;94934.47;;;13.19;100.00
12785;BME280;6456;42.680;23.260;2023-05-20T01:17:13;94883.94;;;12.72;100.00
12785;BME280;6456;42.680;23.260;2023-05-20T01:19:43;94945.75;;;13.08;100.00
12785;BME280;6456;42.680;23.260;2023-05-20T01:22:13;94926.56;;;12.94;100.00
12785;BME280;6456;42.680;23.260;2023-05-20T01:24:43;94901.34;;;12.80;100.00
12785;BME280;6456;42.680;23.260;2023-05-20T01:27:13;94878.56;;;12.61;100.00
12785;BME280;6456;42.680;23.260;2023-05-20T01:29:41;94943.72;;;13.03;100.00
12785;BME280;6456;42.680;23.260;2023-05-20T01:32:10;94939.69;;;13.01;100.00
12785;BME280;6456;42.680;23.260;2023-05-20T01:34:38;94912.47;;;12.82;100.00
12785;BME280;6456;42.680;23.260;2023-05-20T01:37:07;94945.38;;;13.04;100.00
12785;BME280;6456;42.680;23.260;2023-05-20T01:39:35;94886.28;;;12.62;100.00
12785;BME280;6456;42.680;23.260;2023-05-20T01:42:07;94935.88;;;12.97;100.00
12785;BME280;6456;42.680;23.260;2023-05-20T01:44:36;94931.28;;;12.92;100.00
12785;BME280;6456;42.680;23.260;2023-05-20T01:47:03;94924.44;;;12.84;100.00
12785;BME280;6456;42.680;23.260;2023-05-20T01:49:30;94935.16;;;12.90;100.00
12785;BME280;6456;42.680;23.260;2023-05-20T01:51:57;94933.22;;;12.78;100.00
12785;BME280;6456;42.680;23.260;2023-05-20T01:54:24;94945.34;;;12.86;100.00
12785;BME280;6456;42.680;23.260;2023-05-20T01:56:51;94934.13;;;12.72;100.00
12785;BME280;6456;42.680;23.260;2023-05-20T01:59:19;94887.09;;;12.38;100.00
12785;BME280;6456;42.680;23.260;2023-05-20T02:01:46;94936.78;;;12.66;100.00
12785;BME280;6456;42.680;23.260;2023-05-20T02:04:13;94866.56;;;12.22;100.00
12785;BME280;6456;42.680;23.260;2023-05-20T02:06:40;94868.97;;;12.23;100.00
12785;BME280;6456;42.680;23.260;2023-05-20T02:09:06;94829.00;;;12.02;100.00
12785;BME280;6456;42.680;23.260;2023-05-20T02:11:33;94826.50;;;12.07;100.00
12785;BME280;6456;42.680;23.260;2023-05-20T02:14:00;94884.47;;;12.38;100.00
12785;BME280;6456;42.680;23.260;2023-05-20T02:16:28;94935.50;;;12.75;100.00
12785;BME280;6456;42.680;23.260;2023-05-20T02:18:55;94934.31;;;12.71;100.00
12785;BME280;6456;42.680;23.260;2023-05-20T02:21:23;94910.16;;;12.49;100.00
12785;BME280;6456;42.680;23.260;2023-05-20T02:23:49;94934.97;;;12.66;100.00
12785;BME280;6456;42.680;23.260;2023-05-20T02:26:16;94883.94;;;12.30;100.00
12785;BME280;6456;42.680;23.260;2023-05-20T02:28:44;94861.63;;;12.26;100.00
12785;BME280;6456;42.680;23.260;2023-05-20T02:31:15;94886.66;;;12.41;100.00
12785;BME280;6456;42.680;23.260;2023-05-20T02:33:43;94915.75;;;12.59;100.00
12785;BME280;6456;42.680;23.260;2023-05-20T02:36:10;94915.47;;;12.67;100.00
12785;BME280;6456;42.680;23.260;2023-05-20T02:38:37;94840.28;;;12.09;100.00
12785;BME280;6456;42.680;23.260;2023-05-20T02:41:05;94905.97;;;12.42;100.00
12785;BME280;6456;42.680;23.260;2023-05-20T02:43:32;94866.97;;;12.19;100.00
12785;BME280;6456;42.680;23.260;2023-05-20T02:45:59;94927.31;;;12.58;100.00
12785;BME280;6456;42.680;23.260;2023-05-20T02:48:25;94934.22;;;12.59;100.00
12785;BME280;6456;42.680;23.260;2023-05-20T02:50:54;94877.09;;;12.22;100.00
12785;BME280;6456;42.680;23.260;2023-05-20T02:53:21;94877.09;;;12.22;100.00
12785;BME280;6456;42.680;23.260;2023-05-20T02:55:48;94906.00;;;12.35;100.00
12785;BME280;6456;42.680;23.260;2023-05-20T02:58:15;94923.50;;;12.54;100.00
12785;BME280;6456;42.680;23.260;2023-05-20T03:00:43;94827.25;;;11.89;100.00
12785;BME280;6456;42.680;23.260;2023-05-20T03:03:09;94917.94;;;12.38;100.00
12785;BME280;6456;42.680;23.260;2023-05-20T03:05:38;94904.81;;;12.31;100.00
12785;BME280;6456;42.680;23.260;2023-05-20T03:08:09;94837.00;;;11.89;100.00
12785;BME280;6456;42.680;23.260;2023-05-20T03:10:36;94901.00;;;12.27;100.00
12785;BME280;6456;42.680;23.260;2023-05-20T03:13:03;94915.13;;;12.39;100.00
12785;BME280;6456;42.680;23.260;2023-05-20T03:15:33;94915.59;;;12.30;100.00
12785;BME280;6456;42.680;23.260;2023-05-20T03:18:00;94935.19;;;12.40;100.00
12785;BME280;6456;42.680;23.260;2023-05-20T03:20:27;94933.16;;;12.42;100.00
12785;BME280;6456;42.680;23.260;2023-05-20T03:22:54;94910.44;;;12.16;100.00
12785;BME280;6456;42.680;23.260;2023-05-20T03:25:23;94882.59;;;11.96;100.00
12785;BME280;6456;42.680;23.260;2023-05-20T03:27:51;94949.94;;;12.48;100.00
12785;BME280;6456;42.680;23.260;2023-05-20T03:30:18;94913.59;;;12.25;100.00
12785;BME280;6456;42.680;23.260;2023-05-20T03:32:45;94949.31;;;12.52;100.00
12785;BME280;6456;42.680;23.260;2023-05-20T03:35:11;94891.16;;;12.16;100.00
12785;BME280;6456;42.680;23.260;2023-05-20T03:37:38;94881.19;;;12.18;100.00
12785;BME280;6456;42.680;23.260;2023-05-20T03:40:06;94897.13;;;12.30;100.00
12785;BME280;6456;42.680;23.260;2023-05-20T03:42:37;94951.19;;;12.70;100.00
12785;BME280;6456;42.680;23.260;2023-05-20T03:45:05;94958.66;;;12.73;100.00
12785;BME280;6456;42.680;23.260;2023-05-20T03:47:32;94946.69;;;12.70;100.00
12785;BME280;6456;42.680;23.260;2023-05-20T03:49:59;94938.00;;;12.70;100.00
12785;BME280;6456;42.680;23.260;2023-05-20T03:52:25;94891.13;;;12.41;100.00
12785;BME280;6456;42.680;23.260;2023-05-20T03:54:52;94965.38;;;12.94;100.00
12785;BME280;6456;42.680;23.260;2023-05-20T03:57:19;94888.13;;;12.37;100.00
12785;BME280;6456;42.680;23.260;2023-05-20T03:59:48;94920.75;;;12.67;100.00
12785;BME280;6456;42.680;23.260;2023-05-20T04:02:15;94978.88;;;13.04;100.00
12785;BME280;6456;42.680;23.260;2023-05-20T04:04:42;94921.91;;;12.71;100.00
12785;BME280;6456;42.680;23.260;2023-05-20T04:07:09;94973.34;;;13.12;100.00
12785;BME280;6456;42.680;23.260;2023-05-20T04:09:36;94976.50;;;13.20;100.00
12785;BME280;6456;42.680;23.260;2023-05-20T04:12:04;94974.00;;;13.25;100.00
12785;BME280;6456;42.680;23.260;2023-05-20T04:14:33;94966.88;;;13.08;100.00
12785;BME280;6456;42.680;23.260;2023-05-20T04:17:03;94934.53;;;12.69;100.00
12785;BME280;6456;42.680;23.260;2023-05-20T04:19:30;94970.66;;;12.94;100.00
12785;BME280;6456;42.680;23.260;2023-05-20T04:21:57;94940.47;;;12.65;100.00
12785;BME280;6456;42.680;23.260;2023-05-20T04:24:24;94984.75;;;13.06;100.00
12785;BME280;6456;42.680;23.260;2023-05-20T04:26:52;94926.97;;;12.73;100.00
12785;BME280;6456;42.680;23.260;2023-05-20T04:29:19;94991.09;;;13.23;100.00
12785;BME280;6456;42.680;23.260;2023-05-20T04:31:46;94908.44;;;12.79;100.00
12785;BME280;6456;42.680;23.260;2023-05-20T04:34:14;94929.56;;;12.98;100.00
12785;BME280;6456;42.680;23.260;2023-05-20T04:36:44;94908.09;;;12.94;100.00
12785;BME280;6456;42.680;23.260;2023-05-20T04:39:11;94986.72;;;13.53;100.00
12785;BME280;6456;42.680;23.260;2023-05-20T04:41:38;94939.44;;;13.27;100.00
12785;BME280;6456;42.680;23.260;2023-05-20T04:44:05;94988.63;;;13.64;100.00
12785;BME280;6456;42.680;23.260;2023-05-20T04:46:31;94997.56;;;13.63;100.00
12785;BME280;6456;42.680;23.260;2023-05-20T04:48:59;94944.78;;;13.38;100.00
12785;BME280;6456;42.680;23.260;2023-05-20T04:51:27;94914.47;;;13.23;100.00
12785;BME280;6456;42.680;23.260;2023-05-20T04:53:54;95000.63;;;13.78;100.00
12785;BME280;6456;42.680;23.260;2023-05-20T04:56:23;94996.00;;;13.92;100.00
12785;BME280;6456;42.680;23.260;2023-05-20T04:58:50;94959.38;;;13.77;100.00
12785;BME280;6456;42.680;23.260;2023-05-20T05:01:17;94992.81;;;14.01;100.00
12785;BME280;6456;42.680;23.260;2023-05-20T05:03:44;94988.47;;;14.07;100.00
12785;BME280;6456;42.680;23.260;2023-05-20T05:06:11;94991.50;;;14.22;100.00
12785;BME280;6456;42.680;23.260;2023-05-20T05:08:39;94985.53;;;14.27;100.00
12785;BME280;6456;42.680;23.260;2023-05-20T05:11:06;94996.53;;;14.42;100.00
12785;BME280;6456;42.680;23.260;2023-05-20T05:13:33;94959.63;;;14.29;100.00
12785;BME280;6456;42.680;23.260;2023-05-20T05:16:01;94998.31;;;14.59;100.00
12785;BME280;6456;42.680;23.260;2023-05-20T05:18:36;95001.28;;;14.63;100.00
12785;BME280;6456;42.680;23.260;2023-05-20T05:21:04;94942.91;;;14.35;100.00
12785;BME280;6456;42.680;23.260;2023-05-20T05:23:32;94929.91;;;14.45;100.00
12785;BME280;6456;42.680;23.260;2023-05-20T05:26:00;94993.50;;;14.91;100.00
12785;BME280;6456;42.680;23.260;2023-05-20T05:28:27;94997.19;;;15.02;100.00
12785;BME280;6456;42.680;23.260;2023-05-20T05:30:54;94992.00;;;15.07;100.00
12785;BME280;6456;42.680;23.260;2023-05-20T05:33:21;94918.84;;;14.71;100.00
12785;BME280;6456;42.680;23.260;2023-05-20T05:35:48;94964.13;;;15.04;100.00
12785;BME280;6456;42.680;23.260;2023-05-20T05:38:15;94963.31;;;15.15;100.00
12785;BME280;6456;42.680;23.260;2023-05-20T05:40:42;94968.50;;;15.22;100.00
12785;BME280;6456;42.680;23.260;2023-05-20T05:43:10;94980.34;;;15.43;100.00
12785;BME280;6456;42.680;23.260;2023-05-20T05:45:37;94983.94;;;15.48;100.00
12785;BME280;6456;42.680;23.260;2023-05-20T05:48:04;94910.66;;;15.07;100.00
12785;BME280;6456;42.680;23.260;2023-05-20T05:50:31;94989.53;;;15.63;100.00
12785;BME280;6456;42.680;23.260;2023-05-20T05:52:58;94988.84;;;15.68;100.00
12785;BME280;6456;42.680;23.260;2023-05-20T05:55:27;94984.53;;;15.78;100.00
12785;BME280;6456;42.680;23.260;2023-05-20T05:57:54;94985.25;;;15.74;100.00
12785;BME280;6456;42.680;23.260;2023-05-20T06:00:22;94983.56;;;15.68;100.00
12785;BME280;6456;42.680;23.260;2023-05-20T06:02:49;94943.22;;;15.43;100.00
12785;BME280;6456;42.680;23.260;2023-05-20T06:05:16;94924.09;;;15.40;100.00
12785;BME280;6456;42.680;23.260;2023-05-20T06:07:43;94951.72;;;15.68;100.00
12785;BME280;6456;42.680;23.260;2023-05-20T06:10:10;94927.50;;;15.64;100.00
12785;BME280;6456;42.680;23.260;2023-05-20T06:12:37;94908.03;;;15.59;100.00
12785;BME280;6456;42.680;23.260;2023-05-20T06:15:04;94968.88;;;16.05;100.00
12785;BME280;6456;42.680;23.260;2023-05-20T06:17:33;94949.16;;;16.01;100.00
12785;BME280;6456;42.680;23.260;2023-05-20T06:19:59;94974.19;;;16.33;100.00
12785;BME280;6456;42.680;23.260;2023-05-20T06:22:26;94962.75;;;16.33;100.00
12785;BME280;6456;42.680;23.260;2023-05-20T06:24:55;94971.75;;;16.48;100.00
12785;BME280;6456;42.680;23.260;2023-05-20T06:27:25;94982.44;;;16.65;100.00
12785;BME280;6456;42.680;23.260;2023-05-20T06:29:51;94987.13;;;16.75;100.00
12785;BME280;6456;42.680;23.260;2023-05-20T06:32:18;94975.53;;;16.81;99.77
12785;BME280;6456;42.680;23.260;2023-05-20T06:34:46;94968.75;;;16.90;98.99
12785;BME280;6456;42.680;23.260;2023-05-20T06:37:14;94939.47;;;16.68;95.37
12785;BME280;6456;42.680;23.260;2023-05-20T06:39:41;94962.06;;;16.87;94.72
12785;BME280;6456;42.680;23.260;2023-05-20T06:42:08;94919.41;;;16.77;92.71
12785;BME280;6456;42.680;23.260;2023-05-20T06:44:35;94915.25;;;16.86;92.64
12785;BME280;6456;42.680;23.260;2023-05-20T06:47:02;94944.28;;;17.26;93.57
12785;BME280;6456;42.680;23.260;2023-05-20T06:49:28;94952.78;;;17.45;94.22
12785;BME280;6456;42.680;23.260;2023-05-20T06:51:56;94942.94;;;17.45;92.01
12785;BME280;6456;42.680;23.260;2023-05-20T06:54:23;94948.91;;;17.52;89.89
12785;BME280;6456;42.680;23.260;2023-05-20T06:56:50;94863.81;;;17.14;89.17
12785;BME280;6456;42.680;23.260;2023-05-20T06:59:17;94953.19;;;17.75;87.44
12785;BME280;6456;42.680;23.260;2023-05-20T07:01:44;94906.41;;;17.57;87.49
12785;BME280;6456;42.680;23.260;2023-05-20T07:04:10;94956.09;;;17.95;87.80
12785;BME280;6456;42.680;23.260;2023-05-20T07:06:37;94958.59;;;18.07;87.56
12785;BME280;6456;42.680;23.260;2023-05-20T07:09:06;94937.81;;;18.04;80.45
12785;BME280;6456;42.680;23.260;2023-05-20T07:11:33;94955.81;;;18.18;78.71
12785;BME280;6456;42.680;23.260;2023-05-20T07:14:00;94898.59;;;17.99;79.69
12785;BME280;6456;42.680;23.260;2023-05-20T07:16:27;94899.56;;;18.15;81.67
12785;BME280;6456;42.680;23.260;2023-05-20T07:18:56;94934.72;;;18.43;80.82
12785;BME280;6456;42.680;23.260;2023-05-20T07:21:23;94949.00;;;18.59;83.31
12785;BME280;6456;42.680;23.260;2023-05-20T07:23:50;94858.88;;;18.24;78.87
12785;BME280;6456;42.680;23.260;2023-05-20T07:26:18;94947.13;;;18.86;76.14
12785;BME280;6456;42.680;23.260;2023-05-20T07:28:45;94944.25;;;18.98;77.84
12785;BME280;6456;42.680;23.260;2023-05-20T07:31:12;94931.19;;;19.01;76.81
12785;BME280;6456;42.680;23.260;2023-05-20T07:33:39;94899.69;;;18.93;73.60
12785;BME280;6456;42.680;23.260;2023-05-20T07:36:06;94916.56;;;19.09;70.40
12785;BME280;6456;42.680;23.260;2023-05-20T07:38:33;94937.81;;;19.36;71.60
12785;BME280;6456;42.680;23.260;2023-05-20T07:41:00;94941.59;;;19.40;72.44
12785;BME280;6456;42.680;23.260;2023-05-20T07:43:28;94944.81;;;19.47;73.49
12785;BME280;6456;42.680;23.260;2023-05-20T07:45:55;94943.00;;;19.57;68.34
12785;BME280;6456;42.680;23.260;2023-05-20T07:48:21;94942.22;;;19.57;66.54
12785;BME280;6456;42.680;23.260;2023-05-20T07:50:48;94942.84;;;19.74;68.32
12785;BME280;6456;42.680;23.260;2023-05-20T07:53:15;94930.03;;;19.81;69.17
12785;BME280;6456;42.680;23.260;2023-05-20T07:55:42;94876.00;;;19.49;68.19
12785;BME280;6456;42.680;23.260;2023-05-20T07:58:08;94938.31;;;19.84;65.79
12785;BME280;6456;42.680;23.260;2023-05-20T08:00:37;94928.97;;;19.82;65.18
12785;BME280;6456;42.680;23.260;2023-05-20T08:03:04;94928.44;;;19.85;64.23
12785;BME280;6456;42.680;23.260;2023-05-20T08:05:32;94891.00;;;19.65;65.56
12785;BME280;6456;42.680;23.260;2023-05-20T08:08:01;94925.28;;;19.98;66.99
12785;BME280;6456;42.680;23.260;2023-05-20T08:10:28;94925.84;;;20.10;68.14
12785;BME280;6456;42.680;23.260;2023-05-20T08:12:55;94922.16;;;20.21;67.97
12785;BME280;6456;42.680;23.260;2023-05-20T08:15:35;94859.00;;;19.85;69.48
12785;BME280;6456;42.680;23.260;2023-05-20T08:18:03;94922.16;;;20.21;62.70
12785;BME280;6456;42.680;23.260;2023-05-20T08:20:30;94921.56;;;20.19;65.58
12785;BME280;6456;42.680;23.260;2023-05-20T08:22:56;94866.50;;;19.93;64.84
12785;BME280;6456;42.680;23.260;2023-05-20T08:25:23;94854.19;;;19.82;65.81
12785;BME280;6456;42.680;23.260;2023-05-20T08:27:50;94920.78;;;20.14;63.46
12785;BME280;6456;42.680;23.260;2023-05-20T08:30:17;94916.03;;;20.26;64.73
12785;BME280;6456;42.680;23.260;2023-05-20T08:32:44;94862.75;;;19.74;64.70
12785;BME280;6456;42.680;23.260;2023-05-20T08:35:14;94906.31;;;20.00;68.79
12785;BME280;6456;42.680;23.260;2023-05-20T08:37:41;94914.59;;;19.93;66.43
12785;BME280;6456;42.680;23.260;2023-05-20T08:40:09;94892.91;;;19.84;66.49
12785;BME280;6456;42.680;23.260;2023-05-20T08:42:40;94912.72;;;19.94;67.45
12785;BME280;6456;42.680;23.260;2023-05-20T08:45:09;94895.09;;;19.93;66.91
12785;BME280;6456;42.680;23.260;2023-05-20T08:47:38;94904.97;;;20.02;63.96
12785;BME280;6456;42.680;23.260;2023-05-20T08:50:07;94913.53;;;20.09;66.07
12785;BME280;6456;42.680;23.260;2023-05-20T08:52:37;94911.41;;;20.06;67.28
12785;BME280;6456;42.680;23.260;2023-05-20T08:55:13;94888.13;;;19.97;66.35
12785;BME280;6456;42.680;23.260;2023-05-20T08:57:40;94922.38;;;20.15;63.59
12785;BME280;6456;42.680;23.260;2023-05-20T09:00:11;94920.56;;;20.30;63.26
12785;BME280;6456;42.680;23.260;2023-05-20T09:02:41;94914.72;;;20.33;64.35
12785;BME280;6456;42.680;23.260;2023-05-20T09:05:09;94916.88;;;20.47;65.60
12785;BME280;6456;42.680;23.260;2023-05-20T09:07:37;94894.38;;;20.48;62.71
12785;BME280;6456;42.680;23.260;2023-05-20T09:10:07;94899.22;;;20.71;63.43
12785;BME280;6456;42.680;23.260;2023-05-20T09:12:35;94894.91;;;20.75;64.36
12785;BME280;6456;42.680;23.260;2023-05-20T09:15:02;94909.09;;;20.70;65.14
12785;BME280;6456;42.680;23.260;2023-05-20T09:17:29;94892.25;;;20.85;65.43
12785;BME280;6456;42.680;23.260;2023-05-20T09:19:56;94896.78;;;21.09;64.78
12785;BME280;6456;42.680;23.260;2023-05-20T09:22:23;94870.81;;;21.10;65.05
12785;BME280;6456;42.680;23.260;2023-05-20T09:24:52;94895.44;;;21.12;63.53
12785;BME280;6456;42.680;23.260;2023-05-20T09:27:20;94832.88;;;20.73;63.03
12785;BME280;6456;42.680;23.260;2023-05-20T09:29:47;94875.13;;;21.06;62.83
12785;BME280;6456;42.680;23.260;2023-05-20T09:32:14;94872.97;;;20.98;65.02
12785;BME280;6456;42.680;23.260;2023-05-20T09:34:41;94783.22;;;20.52;63.92
12785;BME280;6456;42.680;23.260;2023-05-20T09:37:10;94855.84;;;21.04;62.60
12785;BME280;6456;42.680;23.260;2023-05-20T09:39:43;94886.34;;;21.08;62.45
12785;BME280;6456;42.680;23.260;2023-05-20T09:42:20;94882.03;;;21.17;65.84
12785;BME280;6456;42.680;23.260;2023-05-20T09:44:51;94885.25;;;21.24;65.95
12785;BME280;6456;42.680;23.260;2023-05-20T09:47:34;94880.97;;;21.18;62.62
12785;BME280;6456;42.680;23.260;2023-05-20T09:50:02;94865.41;;;21.35;63.03
12785;BME280;6456;42.680;23.260;2023-05-20T09:52:30;94872.91;;;21.28;62.79
12785;BME280;6456;42.680;23.260;2023-05-20T09:54:58;94814.66;;;20.85;62.33
12785;BME280;6456;42.680;23.260;2023-05-20T09:57:29;94836.06;;;20.90;64.16
12785;BME280;6456;42.680;23.260;2023-05-20T09:59:56;94768.75;;;20.53;62.85
12785;BME280;6456;42.680;23.260;2023-05-20T10:02:23;94852.38;;;20.93;63.83
12785;BME280;6456;42.680;23.260;2023-05-20T10:04:51;94785.09;;;20.41;62.44
12785;BME280;6456;42.680;23.260;2023-05-20T10:07:48;94854.47;;;21.22;64.43
12785;BME280;6456;42.680;23.260;2023-05-20T10:10:27;94791.63;;;21.04;65.09
12785;BME280;6456;42.680;23.260;2023-05-20T10:13:04;94858.13;;;21.46;63.42
12785;BME280;6456;42.680;23.260;2023-05-20T10:15:42;94854.19;;;21.23;62.08
12785;BME280;6456;42.680;23.260;2023-05-20T10:18:24;94837.31;;;21.33;62.21
12785;BME280;6456;42.680;23.260;2023-05-20T10:20:55;94833.44;;;21.64;59.99
12785;BME280;6456;42.680;23.260;2023-05-20T10:23:22;94835.75;;;21.76;59.77
12785;BME280;6456;42.680;23.260;2023-05-20T10:25:50;94830.91;;;21.83;58.20
12785;BME280;6456;42.680;23.260;2023-05-20T10:28:27;94788.50;;;21.51;59.64
12785;BME280;6456;42.680;23.260;2023-05-20T10:30:54;94822.59;;;21.84;58.11
12785;BME280;6456;42.680;23.260;2023-05-20T10:33:21;94814.66;;;21.69;55.21
12785;BME280;6456;42.680;23.260;2023-05-20T10:35:49;94819.19;;;21.73;54.78
12785;BME280;6456;42.680;23.260;2023-05-20T10:38:16;94811.38;;;21.77;55.36
12785;BME280;6456;42.680;23.260;2023-05-20T10:40:45;94739.41;;;21.22;59.25
12785;BME280;6456;42.680;23.260;2023-05-20T10:43:13;94806.59;;;21.74;59.12
12785;BME280;6456;42.680;23.260;2023-05-20T10:45:49;94791.25;;;21.80;56.51
12785;BME280;6456;42.680;23.260;2023-05-20T10:48:19;94742.22;;;21.45;54.71
12785;BME280;6456;42.680;23.260;2023-05-20T10:50:53;94751.97;;;21.26;53.44
12785;BME280;6456;42.680;23.260;2023-05-20T10:53:21;94771.47;;;21.32;55.69
12785;BME280;6456;42.680;23.260;2023-05-20T10:55:50;94700.16;;;20.97;52.50
12785;BME280;6456;42.680;23.260;2023-05-20T10:58:20;94769.94;;;21.64;54.02
12785;BME280;6456;42.680;23.260;2023-05-20T11:00:53;94764.50;;;21.74;55.34
12785;BME280;6456;42.680;23.260;2023-05-20T11:03:21;94759.41;;;21.78;53.08
12785;BME280;6456;42.680;23.260;2023-05-20T11:05:49;94766.09;;;21.86;52.63
12785;BME280;6456;42.680;23.260;2023-05-20T11:08:16;94786.72;;;21.80;54.47
12785;BME280;6456;42.680;23.260;2023-05-20T11:10:43;94706.59;;;21.45;52.68
12785;BME280;6456;42.680;23.260;2023-05-20T11:13:12;94737.44;;;21.81;54.33
12785;BME280;6456;42.680;23.260;2023-05-20T11:15:40;94713.66;;;21.69;52.83
12785;BME280;6456;42.680;23.260;2023-05-20T11:18:10;94780.56;;;21.80;50.06
12785;BME280;6456;42.680;23.260;2023-05-20T11:20:39;94727.91;;;21.21;52.00
12785;BME280;6456;42.680;23.260;2023-05-20T11:23:10;94707.09;;;21.03;54.20
12785;BME280;6456;42.680;23.260;2023-05-20T11:25:38;94651.69;;;20.44;54.56
12785;BME280;6456;42.680;23.260;2023-05-20T11:28:08;94717.28;;;20.96;55.78
12785;BME280;6456;42.680;23.260;2023-05-20T11:30:35;94745.44;;;21.42;56.95
12785;BME280;6456;42.680;23.260;2023-05-20T11:33:03;94747.41;;;21.70;53.77
12785;BME280;6456;42.680;23.260;2023-05-20T11:35:35;94718.75;;;21.71;53.39
12785;BME280;6456;42.680;23.260;2023-05-20T11:38:49;94735.44;;;22.02;53.85
12785;BME280;6456;42.680;23.260;2023-05-20T11:41:05;94732.59;;;22.22;51.79
12785;BME280;6456;42.680;23.260;2023-05-20T11:43:32;94732.81;;;22.25;51.99
12785;BME280;6456;42.680;23.260;2023-05-20T11:45:59;94669.19;;;21.73;53.78
12785;BME280;6456;42.680;23.260;2023-05-20T11:48:26;94692.06;;;21.95;54.33
12785;BME280;6456;42.680;23.260;2023-05-20T11:51:07;94745.94;;;21.93;55.74
12785;BME280;6456;42.680;23.260;2023-05-20T11:53:39;94723.22;;;21.86;55.10
12785;BME280;6456;42.680;23.260;2023-05-20T11:56:06;94607.56;;;21.11;53.67
12785;BME280;6456;42.680;23.260;2023-05-20T11:58:33;94610.97;;;21.22;54.50
12785;BME280;6456;42.680;23.260;2023-05-20T12:01:00;94655.81;;;21.73;55.67
12785;BME280;6456;42.680;23.260;2023-05-20T12:03:27;94615.78;;;21.20;56.50
12785;BME280;6456;42.680;23.260;2023-05-20T12:05:56;94687.06;;;21.49;56.95
12785;BME280;6456;42.680;23.260;2023-05-20T12:08:24;94692.16;;;21.46;58.12
12785;BME280;6456;42.680;23.260;2023-05-20T12:10:51;94634.56;;;21.09;57.40
12785;BME280;6456;42.680;23.260;2023-05-20T12:13:18;94716.34;;;21.69;57.71
12785;BME280;6456;42.680;23.260;2023-05-20T12:15:45;94703.13;;;21.83;56.55
12785;BME280;6456;42.680;23.260;2023-05-20T12:18:12;94698.44;;;22.04;56.70
12785;BME280;6456;42.680;23.260;2023-05-20T12:20:39;94697.63;;;22.03;54.82
12785;BME280;6456;42.680;23.260;2023-05-20T12:23:06;94716.59;;;22.12;56.02
12785;BME280;6456;42.680;23.260;2023-05-20T12:25:34;94678.50;;;21.86;55.21
12785;BME280;6456;42.680;23.260;2023-05-20T12:28:01;94683.91;;;21.76;55.26
12785;BME280;6456;42.680;23.260;2023-05-20T12:30:28;94642.38;;;21.40;55.04
12785;BME280;6456;42.680;23.260;2023-05-20T12:32:55;94652.91;;;21.31;54.72
12785;BME280;6456;42.680;23.260;2023-05-20T12:35:24;94671.44;;;21.18;55.16
12785;BME280;6456;42.680;23.260;2023-05-20T12:37:51;94737.06;;;21.59;56.23
12785;BME280;6456;42.680;23.260;2023-05-20T12:40:18;94679.88;;;21.40;56.02
12785;BME280;6456;42.680;23.260;2023-05-20T12:42:47;94750.00;;;21.86;56.21
12785;BME280;6456;42.680;23.260;2023-05-20T12:45:14;94731.91;;;21.67;55.54
12785;BME280;6456;42.680;23.260;2023-05-20T12:47:41;94698.94;;;21.33;56.10
12785;BME280;6456;42.680;23.260;2023-05-20T12:50:08;94643.19;;;20.96;56.20
12785;BME280;6456;42.680;23.260;2023-05-20T12:52:35;94761.69;;;21.56;56.77
12785;BME280;6456;42.680;23.260;2023-05-20T12:55:05;94677.44;;;20.89;56.05
12785;BME280;6456;42.680;23.260;2023-05-20T12:57:38;94725.25;;;21.16;55.98
12785;BME280;6456;42.680;23.260;2023-05-20T13:00:07;94669.44;;;20.84;56.79